Latest Coastal Weather Observations for Rowley Shoals

IDW60701

Issued at 12:23 am WST Sunday 11 December 2016 (issued every 10 minutes, with the page automatically refreshed every 10 minutes)

About coastal observations | Map of coastal stations | Coastal observations for WA | Marine services | Other Formats
Station Details ID: 200713 Name: ROWLEY SHOALS Lat: -17.52 Lon: 118.95 Height: 0.0 m
Data from the previous 72 hours. | See also: Recent months at Rowley Shoals
Date/Time
WST
Temp
°C
Wind Pressure Rain since
9am
mm
Weather Cloud Vis
km
Sea
Height
m
Swell
Dir  Spd
kts
Gust
kts
hPa Trend Height
m
Period
s
Dir
11/12:00am 29.7 NNW 5 6 1008.2 - - - - - - - - -
 
Date/Time
WST
Temp
°C
Wind Pressure Rain since
9am
mm
Weather Cloud Vis
km
Sea
Height
m
Swell
Dir  Spd
kts
Gust
kts
hPa Trend Height
m
Period
s
Dir
10/11:30pm 29.9 N 5 6 1008.6 - - - - - - - - -
10/11:00pm 29.9 N 5 6 1009.1 - - - - - - - - -
10/10:30pm 30.0 NNW 7 8 1009.1 - - - - - - - - -
10/10:00pm 30.0 N 7 8 1008.9 - - - - - - - - -
10/09:30pm 30.0 N 8 9 1008.9 - - - - - - - - -
10/09:00pm 30.0 N 8 9 1008.8 - - - - - - - - -
10/08:30pm 30.1 N 6 7 1008.7 - - - - - - - - -
10/08:00pm 30.1 N 7 7 1008.1 - - - - - - - - -
10/07:30pm 30.1 NNE 6 8 1007.8 - - - - - - - - -
10/07:00pm 30.1 NNE 6 7 1007.4 - - - - - - - - -
10/06:30pm 30.1 NNE 7 8 1007.0 - - - - - - - - -
10/06:00pm 30.1 NE 7 8 1006.8 - - - - - - - - -
10/05:30pm 30.3 NE 8 9 1006.7 - - - - - - - - -
10/05:00pm 30.4 NNE 7 8 1006.5 - - - - - - - - -
10/04:30pm 30.6 NE 8 9 1006.8 - - - - - - - - -
10/04:00pm 30.6 NE 8 9 1006.6 - - - - - - - - -
10/03:30pm 30.8 NE 8 9 1006.8 - - - - - - - - -
10/03:00pm 30.8 NE 8 9 1006.8 - - - - - - - - -
10/02:30pm 30.9 NE 6 7 1007.1 - - - - - - - - -
10/02:00pm 31.1 NE 6 7 1007.1 - - - - - - - - -
10/01:30pm 30.6 NE 7 9 1007.4 - - - - - - - - -
10/01:00pm 30.9 NE 9 11 1007.6 - - - - - - - - -
10/12:30pm 30.7 NE 8 9 1007.8 - - - - - - - - -
10/12:00pm 30.8 NE 6 7 1007.7 - - - - - - - - -
10/11:30am 30.8 NNE 6 7 1008.0 - - - - - - - - -
10/11:00am 30.7 N 5 6 1008.0 - - - - - - - - -
10/10:30am 30.7 NNE 6 7 1008.4 - - - - - - - - -
10/10:00am 30.5 NNE 7 8 1008.6 - - - - - - - - -
10/09:30am 30.5 N 4 5 1008.7 - - - - - - - - -
10/09:00am 30.2 N 4 6 1008.6 - - - - - - - - -
10/08:30am 30.3 N 2 4 1008.5 - - - - - - - - -
10/08:00am 30.0 N 4 5 1008.3 - - - - - - - - -
10/07:30am 29.8 N 5 5 1008.0 - - - - - - - - -
10/07:00am 29.7 N 4 5 1007.6 - - - - - - - - -
10/06:30am 29.5 N 5 6 1007.5 - - - - - - - - -
10/06:00am 29.5 NNE 7 9 1007.3 - - - - - - - - -
10/05:30am 29.5 NE 6 7 1007.2 - - - - - - - - -
10/05:00am 29.8 ENE 9 10 1007.2 - - - - - - - - -
10/04:30am 29.5 NE 9 11 1007.3 - - - - - - - - -
10/04:00am 29.4 NE 6 7 1007.1 - - - - - - - - -
10/03:30am 29.4 NE 7 8 1007.2 - - - - - - - - -
10/03:00am 29.4 E 7 8 1007.2 - - - - - - - - -
10/02:30am 29.5 ESE 5 6 1007.3 - - - - - - - - -
10/02:00am 29.6 SSE 5 6 1007.0 - - - - - - - - -
10/01:30am 29.6 SSE 6 8 1007.2 - - - - - - - - -
10/01:00am 29.7 S 5 7 1007.2 - - - - - - - - -
10/12:30am 29.8 SSW 5 7 1007.3 - - - - - - - - -
10/12:00am 29.8 SSW 9 11 1007.4 - - - - - - - - -
 
Date/Time
WST
Temp
°C
Wind Pressure Rain since
9am
mm
Weather Cloud Vis
km
Sea
Height
m
Swell
Dir  Spd
kts
Gust
kts
hPa Trend Height
m
Period
s
Dir
09/11:30pm 29.9 SW 8 9 1008.0 - - - - - - - - -
09/11:00pm 29.8 NW 7 8 1007.4 - - - - - - - - -
09/10:30pm 30.2 WNW 8 9 1007.7 - - - - - - - - -
09/10:00pm 30.2 W 7 8 1007.5 - - - - - - - - -
09/09:30pm 30.1 WSW 5 6 1007.6 - - - - - - - - -
09/09:00pm 30.3 SW 6 7 1007.4 - - - - - - - - -
09/08:30pm 30.3 SSW 6 7 1007.3 - - - - - - - - -
09/08:00pm 30.2 SSW 10 11 1006.8 - - - - - - - - -
09/07:30pm 30.6 S 9 11 1006.6 - - - - - - - - -
09/07:00pm 30.6 S 7 9 1006.4 - - - - - - - - -
09/06:30pm 30.3 S 8 10 1005.9 - - - - - - - - -
09/06:00pm 30.4 S 7 9 1005.5 - - - - - - - - -
09/05:30pm 30.7 S 7 9 1005.5 - - - - - - - - -
09/05:00pm 30.3 SE 6 7 1005.5 - - - - - - - - -
09/04:30pm 30.3 SSE 8 9 1005.4 - - - - - - - - -
09/04:00pm 30.3 SSE 9 10 1005.1 - - - - - - - - -
09/03:30pm 30.2 SE 8 10 1005.4 - - - - - - - - -
09/03:00pm 30.3 SE 10 11 1005.5 - - - - - - - - -
09/02:30pm 30.7 SE 10 11 1005.7 - - - - - - - - -
09/02:00pm 30.7 SE 10 12 1005.9 - - - - - - - - -
09/01:30pm 30.7 SE 12 13 1006.3 - - - - - - - - -
09/01:00pm 30.7 SE 13 14 1006.3 - - - - - - - - -
09/12:30pm 30.9 SE 12 13 1006.7 - - - - - - - - -
09/12:00pm 30.5 SSE 12 13 1006.8 - - - - - - - - -
09/11:30am 30.6 SSE 12 14 1007.1 - - - - - - - - -
09/11:00am 30.3 SSE 11 14 1007.3 - - - - - - - - -
09/10:30am 30.3 SSE 11 13 1007.6 - - - - - - - - -
09/10:00am 30.3 SSE 10 13 1007.6 - - - - - - - - -
09/09:30am 30.4 S 7 8 1008.1 - - - - - - - - -
09/09:00am 30.4 S 5 7 1008.4 - - - - - - - - -
09/08:30am 30.5 SSE 6 8 1008.6 - - - - - - - - -
09/08:00am 30.2 S 7 8 1008.2 - - - - - - - - -
09/07:30am 29.8 S 6 8 1008.0 - - - - - - - - -
09/07:00am 29.7 S 6 7 1007.8 - - - - - - - - -
09/06:30am 29.7 S 5 7 1007.8 - - - - - - - - -
09/06:00am 29.6 SSE 6 7 1007.5 - - - - - - - - -
09/05:30am 29.2 SE 8 10 1007.1 - - - - - - - - -
09/05:00am 29.2 SE 10 11 1006.6 - - - - - - - - -
09/04:30am 29.1 SE 11 15 1006.3 - - - - - - - - -
09/04:00am 29.3 SSE 11 13 1006.1 - - - - - - - - -
09/03:30am 29.3 SSE 10 14 1006.1 - - - - - - - - -
09/03:00am 29.3 SE 10 15 1005.7 - - - - - - - - -
09/02:30am 29.2 SSE 6 7 1005.2 - - - - - - - - -
09/02:00am 29.3 SSE 6 7 1005.1 - - - - - - - - -
09/01:30am 28.9 SSE 4 5 1005.3 - - - - - - - - -
09/01:00am 29.0 SSE 5 6 1005.5 - - - - - - - - -
09/12:30am 29.1 SSE 6 7 1006.0 - - - - - - - - -
09/12:00am 29.0 SSE 6 7 1006.0 - - - - - - - - -
 
Date/Time
WST
Temp
°C
Wind Pressure Rain since
9am
mm
Weather Cloud Vis
km
Sea
Height
m
Swell
Dir  Spd
kts
Gust
kts
hPa Trend Height
m
Period
s
Dir
08/11:30pm 28.9 S 5 7 1006.8 - - - - - - - - -
08/11:00pm 29.0 S 7 8 1006.9 - - - - - - - - -
08/10:30pm 29.0 S 5 6 1007.4 - - - - - - - - -
08/10:00pm 29.1 S 4 5 1007.4 - - - - - - - - -
08/09:30pm 29.1 SSE 6 7 1007.9 - - - - - - - - -
08/09:00pm 29.1 SSE 8 9 1007.8 - - - - - - - - -
08/08:30pm 29.2 S 5 7 1008.0 - - - - - - - - -
08/08:00pm 29.2 SSE 5 6 1007.7 - - - - - - - - -
08/07:30pm 29.3 SSE 8 9 1007.7 - - - - - - - - -
08/07:00pm 29.4 SSE 9 9 1007.4 - - - - - - - - -
08/06:30pm 29.4 SSE 8 9 1007.0 - - - - - - - - -
08/06:00pm 29.4 SSE 9 10 1006.5 - - - - - - - - -
08/05:30pm 29.5 SSE 10 11 1006.4 - - - - - - - - -
08/05:00pm 29.6 SSE 7 9 1006.2 - - - - - - - - -
08/04:30pm 29.6 SE 9 11 1006.0 - - - - - - - - -
08/04:00pm 29.6 SE 11 12 1005.8 - - - - - - - - -
08/03:30pm 29.7 SE 13 15 1006.0 - - - - - - - - -
08/03:00pm 29.7 SSE 14 16 1006.0 - - - - - - - - -
08/02:30pm 29.6 SE 13 17 1006.0 - - - - - - - - -
08/02:00pm 29.4 SSE 13 15 1006.2 - - - - - - - - -
08/01:30pm 29.6 SE 14 15 1006.4 - - - - - - - - -
08/01:00pm 29.6 SSE 13 15 1006.5 - - - - - - - - -
08/12:30pm 29.6 SSE 14 16 1006.8 - - - - - - - - -
08/12:00pm 29.5 SSE 13 15 1006.9 - - - - - - - - -
08/11:30am 29.5 SSE 13 15 1007.4 - - - - - - - - -
08/11:00am 29.5 SSE 12 13 1007.7 - - - - - - - - -
08/10:30am 29.6 SSE 9 11 1008.2 - - - - - - - - -
08/10:00am 29.8 SSE 5 7 1008.4 - - - - - - - - -
08/09:30am 29.4 S 5 8 1008.9 - - - - - - - - -
08/09:00am 29.4 S 5 6 1008.8 - - - - - - - - -
08/08:30am 29.5 S 5 7 1008.4 - - - - - - - - -
08/08:00am 29.4 S 6 8 1008.0 - - - - - - - - -
08/07:30am 29.1 S 6 7 1007.8 - - - - - - - - -
08/07:00am 29.0 S 7 9 1007.8 - - - - - - - - -
08/06:30am 28.8 S 6 7 1007.7 - - - - - - - - -
08/06:00am 28.9 SSW 5 5 1007.7 - - - - - - - - -
08/05:30am 28.8 SSW 5 6 1007.5 - - - - - - - - -
08/05:00am 28.8 S 5 5 1007.3 - - - - - - - - -
08/04:30am 29.0 SSE 4 5 1007.2 - - - - - - - - -
08/04:00am 28.9 SSE 7 8 1007.1 - - - - - - - - -
08/03:30am 29.0 SSE 9 11 1007.1 - - - - - - - - -
08/03:00am 29.0 SE 11 13 1006.7 - - - - - - - - -
08/02:30am 28.9 SE 11 13 1006.6 - - - - - - - - -
08/02:00am 28.9 SE 11 12 1006.6 - - - - - - - - -
08/01:30am 28.9 SE 11 13 1007.0 - - - - - - - - -
08/01:00am 28.6 SE 10 11 1007.1 - - - - - - - - -
08/12:30am 28.5 SE 9 11 1007.7 - - - - - - - - -

Other Formats:

Comma delimited format used in spreadsheet applications
http://www.bom.gov.au/fwo/IDW60701/IDW60701.94207.axf

JavaScript Object Notation format (JSON) in row-major order
http://www.bom.gov.au/fwo/IDW60701/IDW60701.94207.json